Time;durP1;ratioP1;P1;durP2;ratioP2;P2;SDS_P1;SDS_P2;PMS_P1;PMS_P2;Temp;Humidity;BMP_temperature;BMP_pressure;BME280_temperature;BME280_humidity;BME280_pressure;Samples;Min_cycle;Max_cycle;Signal;HPM_P1;HPM_P2
2023/09/14 00:00:55;;;;;;;12.15;4.20;;;13.80;99.90;;;;;;5086561;28;20085;-95
2023/09/14 00:03:20;;;;;;;11.25;3.97;;;13.80;99.90;;;;;;5087393;28;20392;-95
2023/09/14 00:05:49;;;;;;;11.95;4.85;;;13.80;99.90;;;;;;5089936;28;20117;-94
2023/09/14 00:08:15;;;;;;;11.63;4.90;;;13.80;99.90;;;;;;5095709;28;20056;-93
2023/09/14 00:10:41;;;;;;;14.50;4.53;;;13.80;99.90;;;;;;5113203;28;20023;-93
2023/09/14 00:13:08;;;;;;;11.60;3.97;;;13.80;99.90;;;;;;5090180;28;20032;-93
2023/09/14 00:15:34;;;;;;;14.50;4.75;;;13.80;99.90;;;;;;5095600;28;20049;-95
2023/09/14 00:18:00;;;;;;;10.98;4.40;;;13.80;99.90;;;;;;5094620;28;20028;-94
2023/09/14 00:20:30;;;;;;;11.13;4.28;;;13.80;99.90;;;;;;5111195;28;20077;-95
2023/09/14 00:22:57;;;;;;;13.20;5.43;;;13.80;99.90;;;;;;5111812;28;20040;-94
2023/09/14 00:25:24;;;;;;;9.40;4.70;;;13.80;99.90;;;;;;5110934;28;20028;-95
2023/09/14 00:27:51;;;;;;;11.18;5.05;;;13.80;99.90;;;;;;5106486;28;20058;-96
2023/09/14 00:30:17;;;;;;;11.50;4.03;;;13.80;99.90;;;;;;5087394;28;20115;-94
2023/09/14 00:32:47;;;;;;;8.73;4.60;;;13.80;99.90;;;;;;5076378;28;20032;-94
2023/09/14 00:35:13;;;;;;;11.25;4.07;;;13.80;99.90;;;;;;5051005;28;20025;-96
2023/09/14 00:37:42;;;;;;;10.38;4.65;;;13.80;99.90;;;;;;5067868;28;20090;-96
2023/09/14 00:40:10;;;;;;;12.70;4.70;;;13.90;99.90;;;;;;5067879;28;20047;-96
2023/09/14 00:42:43;;;;;;;8.75;3.60;;;13.90;99.90;;;;;;5088693;28;20067;-96
2023/09/14 00:45:12;;;;;;;9.15;3.83;;;13.90;99.90;;;;;;5092486;28;20024;-96
2023/09/14 00:48:05;;;;;;;7.22;3.75;;;13.90;99.90;;;;;;5097876;28;20008;-90
2023/09/14 00:50:32;;;;;;;15.02;4.40;;;14.00;99.90;;;;;;5092967;28;20039;-94
2023/09/14 00:52:58;;;;;;;9.80;4.47;;;14.00;99.90;;;;;;5097337;28;20059;-93
2023/09/14 00:55:28;;;;;;;10.63;3.58;;;14.00;99.90;;;;;;5113632;28;20028;-96
2023/09/14 00:57:57;;;;;;;10.50;3.55;;;14.00;99.90;;;;;;5094518;28;20020;-94
2023/09/14 01:00:23;;;;;;;10.82;4.22;;;14.00;99.90;;;;;;5076970;28;20095;-94
2023/09/14 01:02:55;;;;;;;11.55;3.40;;;14.10;99.90;;;;;;5111892;28;20047;-94
2023/09/14 01:05:20;;;;;;;9.70;3.40;;;14.10;99.90;;;;;;5109271;28;20027;-95
2023/09/14 01:07:47;;;;;;;9.77;4.15;;;14.10;99.90;;;;;;5092127;28;20039;-94
2023/09/14 01:10:15;;;;;;;13.27;3.92;;;14.10;99.90;;;;;;5108088;28;20016;-95
2023/09/14 01:12:46;;;;;;;11.98;4.35;;;14.10;99.90;;;;;;5093316;28;20035;-95
2023/09/14 01:15:26;;;;;;;10.20;4.10;;;14.10;99.90;;;;;;5112155;28;20028;-93
2023/09/14 01:18:05;;;;;;;9.93;4.18;;;14.20;99.90;;;;;;5112103;28;20024;-95
2023/09/14 01:20:59;;;;;;;9.50;3.80;;;14.20;99.90;;;;;;5096116;28;20047;-95
2023/09/14 01:23:41;;;;;;;12.93;3.55;;;14.20;99.90;;;;;;5090812;28;20035;-96
2023/09/14 01:26:06;;;;;;;8.75;3.33;;;14.20;99.90;;;;;;5084739;28;20034;-96
2023/09/14 01:28:32;;;;;;;7.82;3.97;;;14.20;99.90;;;;;;5104984;28;20020;-94
2023/09/14 01:30:58;;;;;;;6.30;3.58;;;14.20;99.90;;;;;;5090814;28;20050;-96
2023/09/14 01:33:27;;;;;;;10.23;3.80;;;14.20;99.90;;;;;;5093496;28;20028;-96
2023/09/14 01:35:55;;;;;;;6.63;3.10;;;14.20;99.90;;;;;;5113031;28;20080;-96
2023/09/14 01:38:22;;;;;;;7.07;3.88;;;14.20;99.90;;;;;;5096450;28;20096;-96
2023/09/14 01:40:49;;;;;;;10.27;3.78;;;14.20;99.90;;;;;;5115055;28;20032;-95
2023/09/14 01:43:16;;;;;;;6.82;3.22;;;14.20;99.90;;;;;;5098115;28;20046;-95
2023/09/14 01:45:42;;;;;;;8.93;3.25;;;14.30;99.90;;;;;;5115552;28;20050;-93
2023/09/14 01:48:13;;;;;;;5.60;2.72;;;14.20;99.90;;;;;;5117159;28;20031;-94
2023/09/14 01:50:39;;;;;;;7.15;2.88;;;14.20;99.90;;;;;;5099216;28;20024;-94
2023/09/14 01:53:05;;;;;;;10.05;2.72;;;14.20;99.90;;;;;;5098983;28;20028;-95
2023/09/14 01:55:30;;;;;;;14.30;3.03;;;14.20;99.90;;;;;;5096638;28;20077;-95
2023/09/14 01:57:56;;;;;;;5.38;2.42;;;14.20;99.90;;;;;;5111765;28;20024;-93
2023/09/14 02:00:22;;;;;;;5.65;2.15;;;14.20;99.90;;;;;;5109610;28;20028;-96
2023/09/14 02:02:48;;;;;;;4.32;2.22;;;14.20;99.90;;;;;;5111960;28;20032;-93
2023/09/14 02:05:13;;;;;;;6.78;2.30;;;14.20;99.90;;;;;;5095233;28;20024;-93
2023/09/14 02:07:39;;;;;;;8.93;2.10;;;14.20;99.90;;;;;;5096621;28;20032;-94
2023/09/14 02:10:05;;;;;;;4.47;2.20;;;14.20;99.90;;;;;;5114542;28;20470;-93
2023/09/14 02:12:30;;;;;;;10.25;2.42;;;14.20;99.90;;;;;;5095761;28;20028;-94
2023/09/14 02:14:57;;;;;;;7.82;2.13;;;14.20;99.90;;;;;;5114368;28;20038;-92
2023/09/14 02:17:22;;;;;;;10.10;2.30;;;14.20;99.90;;;;;;5101440;28;20020;-93
2023/09/14 02:19:48;;;;;;;4.50;2.08;;;14.20;99.90;;;;;;5102407;28;20013;-95
2023/09/14 02:22:13;;;;;;;5.22;2.47;;;14.20;99.90;;;;;;5101676;28;20043;-95
2023/09/14 02:24:39;;;;;;;3.28;1.92;;;14.20;99.90;;;;;;5100055;28;20470;-92
2023/09/14 02:27:05;;;;;;;7.18;2.15;;;14.10;99.90;;;;;;5101528;28;20020;-94
2023/09/14 02:29:30;;;;;;;4.80;2.13;;;14.10;99.90;;;;;;5119019;28;20020;-91
2023/09/14 02:31:56;;;;;;;5.63;2.20;;;14.10;99.90;;;;;;5118008;28;20062;-93
2023/09/14 02:34:22;;;;;;;7.90;2.28;;;14.10;99.90;;;;;;5099594;28;20081;-93
2023/09/14 02:36:48;;;;;;;9.18;2.28;;;14.00;99.90;;;;;;5096805;28;20016;-94
2023/09/14 02:39:13;;;;;;;7.50;2.47;;;14.00;99.90;;;;;;5114780;28;20027;-93
2023/09/14 02:41:39;;;;;;;4.47;2.20;;;14.00;99.90;;;;;;5095380;28;20090;-96
2023/09/14 02:44:05;;;;;;;4.22;2.00;;;14.00;99.90;;;;;;5094302;28;20139;-95
2023/09/14 02:46:30;;;;;;;8.65;2.85;;;14.00;99.90;;;;;;5112366;28;20088;-96
2023/09/14 02:48:56;;;;;;;7.80;2.30;;;14.00;99.90;;;;;;5095570;28;20084;-93
2023/09/14 02:51:22;;;;;;;5.95;2.35;;;13.90;99.90;;;;;;5093085;28;20027;-95
2023/09/14 02:53:47;;;;;;;7.95;2.08;;;13.90;99.90;;;;;;5112914;28;20024;-94
2023/09/14 02:56:13;;;;;;;5.93;2.22;;;13.90;99.90;;;;;;5098223;28;20031;-95
2023/09/14 02:58:39;;;;;;;6.43;2.70;;;13.90;99.90;;;;;;5096373;28;20060;-95
2023/09/14 03:01:09;;;;;;;7.80;2.30;;;13.80;99.90;;;;;;5094544;28;20063;-95
2023/09/14 03:03:39;;;;;;;7.97;2.13;;;13.80;99.90;;;;;;5112752;28;20079;-93
2023/09/14 03:06:05;;;;;;;9.07;2.42;;;13.80;99.90;;;;;;5098344;28;20017;-95
2023/09/14 03:08:31;;;;;;;4.25;1.88;;;13.80;99.90;;;;;;5092940;28;20039;-95
2023/09/14 03:10:58;;;;;;;5.95;2.17;;;13.80;99.90;;;;;;5086725;28;20020;-95
2023/09/14 03:13:23;;;;;;;5.63;2.28;;;13.80;99.90;;;;;;5104314;28;20024;-95
2023/09/14 03:15:57;;;;;;;6.15;2.60;;;13.80;99.90;;;;;;5085674;28;20135;-96
2023/09/14 03:18:23;;;;;;;8.93;2.17;;;13.80;99.90;;;;;;5105505;28;20024;-95
2023/09/14 03:20:54;;;;;;;9.18;2.63;;;13.80;99.90;;;;;;5089559;28;20024;-96
2023/09/14 03:23:20;;;;;;;5.10;2.60;;;13.80;99.90;;;;;;5090541;28;20095;-95
2023/09/14 03:25:46;;;;;;;7.97;2.50;;;13.80;99.90;;;;;;5106737;28;20032;-96
2023/09/14 03:28:12;;;;;;;6.45;2.30;;;13.70;99.90;;;;;;5090581;28;20059;-96
2023/09/14 03:30:38;;;;;;;6.90;2.08;;;13.70;99.90;;;;;;5085028;28;20053;-96
2023/09/14 03:33:04;;;;;;;10.85;2.53;;;13.70;99.90;;;;;;5085044;28;20039;-95
2023/09/14 03:35:30;;;;;;;10.52;3.05;;;13.70;99.90;;;;;;5083884;28;20478;-95
2023/09/14 03:37:56;;;;;;;7.78;2.67;;;13.70;99.90;;;;;;5104103;28;20020;-93
2023/09/14 03:40:22;;;;;;;5.85;2.35;;;13.70;99.90;;;;;;5085053;28;20055;-95
2023/09/14 03:42:49;;;;;;;9.82;2.70;;;13.70;99.90;;;;;;5098520;28;20044;-96
2023/09/14 03:45:15;;;;;;;7.32;2.95;;;13.70;99.90;;;;;;5078198;28;20020;-95
2023/09/14 03:47:41;;;;;;;8.40;2.70;;;13.70;99.90;;;;;;5080418;28;20243;-94
2023/09/14 03:50:08;;;;;;;5.88;2.50;;;13.60;99.90;;;;;;5086152;28;20024;-94
2023/09/14 03:52:35;;;;;;;7.72;2.90;;;13.60;99.90;;;;;;5083773;28;20024;-95
2023/09/14 03:55:01;;;;;;;7.15;3.58;;;13.60;99.90;;;;;;5079677;28;20381;-92
2023/09/14 03:57:28;;;;;;;5.15;2.65;;;13.60;99.90;;;;;;5082581;28;20030;-93
2023/09/14 03:59:54;;;;;;;8.13;2.90;;;13.60;99.90;;;;;;5081889;28;20068;-93
2023/09/14 04:02:20;;;;;;;5.70;2.92;;;13.70;99.90;;;;;;5082132;28;20047;-94
2023/09/14 04:04:45;;;;;;;5.38;2.92;;;13.70;99.90;;;;;;5080312;28;20485;-92
2023/09/14 04:07:11;;;;;;;5.40;3.10;;;13.70;99.90;;;;;;5076154;28;20039;-95
2023/09/14 04:09:37;;;;;;;7.38;2.85;;;13.70;99.90;;;;;;5080670;28;20027;-94
2023/09/14 04:12:03;;;;;;;10.52;3.15;;;13.70;99.90;;;;;;5077825;28;20420;-93
2023/09/14 04:14:29;;;;;;;6.88;3.33;;;13.70;99.90;;;;;;5095253;28;20079;-94
2023/09/14 04:16:59;;;;;;;8.30;2.90;;;13.70;99.90;;;;;;5095034;28;20117;-93
2023/09/14 04:19:25;;;;;;;6.18;3.10;;;13.70;99.90;;;;;;5094980;28;20028;-94
2023/09/14 04:21:52;;;;;;;6.05;3.22;;;13.60;99.90;;;;;;5093940;28;20123;-90
2023/09/14 04:24:18;;;;;;;8.35;2.95;;;13.60;99.90;;;;;;5075993;28;20027;-93
2023/09/14 04:26:43;;;;;;;6.28;3.40;;;13.60;99.90;;;;;;5094093;28;20028;-93
2023/09/14 04:29:10;;;;;;;7.15;3.35;;;13.60;99.90;;;;;;5076366;28;20425;-92
2023/09/14 04:31:36;;;;;;;9.43;3.40;;;13.50;99.90;;;;;;5076354;28;20024;-92
2023/09/14 04:34:02;;;;;;;8.02;3.10;;;13.50;99.90;;;;;;5076043;28;20050;-93
2023/09/14 04:36:27;;;;;;;6.45;3.10;;;13.50;99.90;;;;;;5075267;28;20474;-94
2023/09/14 04:38:53;;;;;;;5.68;2.90;;;13.50;99.90;;;;;;5093116;28;20055;-91
2023/09/14 04:41:19;;;;;;;6.38;3.45;;;13.50;99.90;;;;;;5093156;28;20028;-93
2023/09/14 04:43:45;;;;;;;8.63;3.55;;;13.50;99.90;;;;;;5075080;28;20024;-94
2023/09/14 04:46:10;;;;;;;7.45;3.35;;;13.50;99.90;;;;;;5075195;28;20030;-94
2023/09/14 04:48:41;;;;;;;4.28;2.50;;;13.40;99.90;;;;;;5075282;28;20093;-94
2023/09/14 04:51:07;;;;;;;;;;;13.40;99.90;;;;;;5079636;28;20137;-94
2023/09/14 04:53:32;;;;;;;7.10;2.42;;;13.40;99.90;;;;;;5098127;28;19949;-93
2023/09/14 04:55:58;;;;;;;4.68;3.00;;;13.40;99.90;;;;;;5079293;28;20149;-93
2023/09/14 04:58:24;;;;;;;4.25;2.63;;;13.40;99.90;;;;;;5098675;28;20028;-93
2023/09/14 05:00:50;;;;;;;5.13;3.13;;;13.40;99.90;;;;;;5100802;28;20024;-94
2023/09/14 05:03:16;;;;;;;5.72;2.42;;;13.40;99.90;;;;;;5084231;28;20028;-95
2023/09/14 05:05:42;;;;;;;6.22;2.42;;;13.40;99.90;;;;;;5115304;28;20020;-93
2023/09/14 05:08:08;;;;;;;5.57;2.63;;;13.40;99.90;;;;;;5084782;28;20039;-94
2023/09/14 05:10:34;;;;;;;4.93;2.80;;;13.40;99.90;;;;;;5083713;28;20028;-93
2023/09/14 05:12:59;;;;;;;7.85;2.80;;;13.40;99.90;;;;;;5085007;28;20016;-95
2023/09/14 05:15:25;;;;;;;5.15;2.80;;;13.40;99.90;;;;;;5103274;28;20129;-93
2023/09/14 05:17:51;;;;;;;4.53;2.80;;;13.40;99.90;;;;;;5084954;28;20024;-95
2023/09/14 05:20:17;;;;;;;4.25;2.38;;;13.40;99.90;;;;;;5087335;28;20028;-94
2023/09/14 05:22:43;;;;;;;7.53;3.67;;;13.30;99.90;;;;;;5107383;28;20032;-93
2023/09/14 05:25:09;;;;;;;6.25;2.20;;;13.30;99.90;;;;;;5087609;28;20058;-93
2023/09/14 05:27:38;;;;;;;6.82;3.25;;;13.30;99.90;;;;;;5102370;28;20020;-93
2023/09/14 05:30:06;;;;;;;5.90;2.45;;;13.40;99.90;;;;;;5103578;28;20028;-93
2023/09/14 05:32:31;;;;;;;5.60;2.80;;;13.30;99.90;;;;;;5093109;28;20046;-91
2023/09/14 05:34:58;;;;;;;5.82;2.75;;;13.40;99.90;;;;;;5118610;28;20478;-94
2023/09/14 05:37:23;;;;;;;10.90;3.22;;;13.40;99.90;;;;;;5101141;28;20008;-90
2023/09/14 05:39:49;;;;;;;4.80;2.75;;;13.30;99.90;;;;;;5096247;28;20043;-92
2023/09/14 05:42:15;;;;;;;3.65;2.63;;;13.30;99.90;;;;;;5112656;28;20055;-93
2023/09/14 05:44:41;;;;;;;4.43;2.50;;;13.30;99.90;;;;;;5110505;28;20071;-92
2023/09/14 05:47:06;;;;;;;6.40;3.03;;;13.30;99.90;;;;;;5088803;28;20636;-93
2023/09/14 05:49:32;;;;;;;7.22;2.72;;;13.40;99.90;;;;;;5077287;28;20028;-93
2023/09/14 05:51:58;;;;;;;5.40;2.80;;;13.40;99.90;;;;;;5070505;28;20029;-93
2023/09/14 05:54:24;;;;;;;7.65;2.58;;;13.30;99.90;;;;;;5071897;28;20093;-92
2023/09/14 05:56:49;;;;;;;7.28;2.88;;;13.40;99.90;;;;;;5086263;28;20469;-93
2023/09/14 05:59:16;;;;;;;4.07;2.67;;;13.30;99.90;;;;;;5065857;28;20053;-92
2023/09/14 06:01:42;;;;;;;6.93;3.08;;;13.30;99.90;;;;;;5069696;28;20036;-92
2023/09/14 06:04:08;;;;;;;7.82;2.58;;;13.30;99.90;;;;;;5087028;28;20028;-94
2023/09/14 06:06:34;;;;;;;6.30;2.72;;;13.30;99.90;;;;;;5089436;28;20111;-91
2023/09/14 06:08:59;;;;;;;4.82;2.60;;;13.30;99.90;;;;;;5085096;28;20024;-94
2023/09/14 06:11:28;;;;;;;5.35;2.60;;;13.30;99.90;;;;;;5067901;28;20043;-92
2023/09/14 06:13:54;;;;;;;5.53;2.65;;;13.30;99.90;;;;;;5086696;28;20024;-94
2023/09/14 06:16:20;;;;;;;6.85;2.60;;;13.40;99.90;;;;;;5068930;28;20055;-92
2023/09/14 06:18:46;;;;;;;3.92;2.28;;;13.40;99.90;;;;;;5078146;28;20058;-92
2023/09/14 06:21:15;;;;;;;3.55;2.15;;;13.40;99.90;;;;;;5077656;28;20055;-94
2023/09/14 06:23:43;;;;;;;5.07;2.40;;;13.40;99.90;;;;;;5079286;28;20024;-96
2023/09/14 06:26:12;;;;;;;4.20;2.15;;;13.40;99.90;;;;;;5079934;28;20085;-95
2023/09/14 06:28:37;;;;;;;3.35;2.25;;;13.40;99.90;;;;;;5075240;28;20472;-91
2023/09/14 06:31:03;;;;;;;11.38;2.30;;;13.40;99.90;;;;;;5102414;28;20028;-94
2023/09/14 06:33:29;;;;;;;5.63;1.85;;;13.40;99.90;;;;;;5114028;28;20028;-93
2023/09/14 06:35:54;;;;;;;6.95;2.30;;;13.40;99.90;;;;;;5093184;28;20028;-92
2023/09/14 06:38:20;;;;;;;3.08;1.98;;;13.50;99.90;;;;;;5111412;28;20069;-95
2023/09/14 06:40:46;;;;;;;3.85;1.98;;;13.50;99.90;;;;;;5109072;28;20470;-88
2023/09/14 06:43:11;;;;;;;4.07;1.80;;;13.50;99.90;;;;;;5096537;28;20072;-92
2023/09/14 06:45:37;;;;;;;4.13;2.33;;;13.60;99.90;;;;;;5071555;28;20397;-94
2023/09/14 06:48:03;;;;;;;11.05;1.90;;;13.60;99.90;;;;;;5072479;28;20623;-91
2023/09/14 06:50:28;;;;;;;3.65;1.77;;;13.60;99.90;;;;;;5064961;28;20036;-94
2023/09/14 06:52:54;;;;;;;5.25;2.38;;;13.70;99.90;;;;;;5071488;28;20024;-95
2023/09/14 06:55:20;;;;;;;3.83;2.05;;;13.70;99.90;;;;;;5080527;28;20020;-94
2023/09/14 06:57:45;;;;;;;11.13;3.00;;;13.70;99.90;;;;;;5069351;28;20481;-93
2023/09/14 07:00:16;;;;;;;4.45;2.00;;;13.70;99.90;;;;;;5070290;28;20020;-92
2023/09/14 07:02:42;;;;;;;5.45;1.98;;;13.70;99.90;;;;;;5091357;28;20044;-95
2023/09/14 07:05:11;;;;;;;4.80;2.20;;;13.80;99.90;;;;;;5091916;28;20047;-91
2023/09/14 07:07:41;;;;;;;3.08;2.30;;;13.70;99.90;;;;;;5067843;28;20082;-95
2023/09/14 07:10:08;;;;;;;3.40;2.20;;;13.70;99.90;;;;;;5075987;28;20024;-93
2023/09/14 07:12:35;;;;;;;4.28;2.30;;;13.70;99.90;;;;;;5071718;28;20270;-95
2023/09/14 07:15:02;;;;;;;4.43;2.20;;;13.80;99.90;;;;;;5074929;28;20024;-95
2023/09/14 07:17:28;;;;;;;4.50;2.00;;;13.80;99.90;;;;;;5069942;28;20032;-93
2023/09/14 07:19:53;;;;;;;5.68;2.60;;;13.80;99.90;;;;;;5078743;28;20107;-93
2023/09/14 07:22:22;;;;;;;7.18;2.22;;;13.80;99.90;;;;;;5072776;28;20051;-93
2023/09/14 07:24:48;;;;;;;5.40;2.17;;;13.90;99.90;;;;;;5075688;28;20013;-94
2023/09/14 07:27:15;;;;;;;5.20;2.13;;;13.90;99.90;;;;;;5072905;28;20089;-93
2023/09/14 07:29:41;;;;;;;4.53;2.97;;;13.90;99.90;;;;;;5094225;28;20023;-95
2023/09/14 07:32:06;;;;;;;4.00;2.60;;;14.00;99.90;;;;;;5079474;28;20028;-95
2023/09/14 07:34:32;;;;;;;5.55;2.00;;;14.00;99.90;;;;;;5078750;28;20024;-94
2023/09/14 07:36:58;;;;;;;3.67;2.03;;;14.00;99.90;;;;;;5074372;28;20031;-94
2023/09/14 07:39:23;;;;;;;8.95;2.40;;;14.10;99.90;;;;;;5070381;28;20023;-94
2023/09/14 07:41:55;;;;;;;3.78;2.03;;;14.10;99.90;;;;;;5070201;28;20037;-94
2023/09/14 07:44:21;;;;;;;3.47;1.85;;;14.10;99.90;;;;;;5073590;28;20036;-94
2023/09/14 07:46:47;;;;;;;2.25;1.77;;;14.20;99.90;;;;;;5074902;28;20017;-94
2023/09/14 07:49:12;;;;;;;3.47;2.05;;;14.20;99.90;;;;;;5076305;28;20553;-94
2023/09/14 07:51:39;;;;;;;3.03;1.73;;;14.20;99.90;;;;;;5073758;28;20364;-95
2023/09/14 07:54:05;;;;;;;5.65;2.10;;;14.20;99.90;;;;;;5078283;28;20047;-94
2023/09/14 07:56:32;;;;;;;4.50;1.83;;;14.30;99.90;;;;;;5073299;28;20032;-95
2023/09/14 07:58:58;;;;;;;3.95;2.05;;;14.30;99.90;;;;;;5081711;28;20044;-94
2023/09/14 08:01:24;;;;;;;4.32;2.13;;;14.30;99.90;;;;;;5076474;28;20025;-95
2023/09/14 08:03:50;;;;;;;6.38;2.00;;;14.30;99.90;;;;;;5076172;28;20032;-92
2023/09/14 08:06:18;;;;;;;7.20;2.25;;;14.30;99.90;;;;;;5081112;28;20025;-93
2023/09/14 08:08:45;;;;;;;4.57;2.00;;;14.30;99.90;;;;;;5082175;28;20043;-94
2023/09/14 08:11:11;;;;;;;7.55;2.33;;;14.20;99.90;;;;;;5081983;28;20607;-89
2023/09/14 08:13:37;;;;;;;4.88;2.17;;;14.30;99.90;;;;;;5081218;28;20056;-96
2023/09/14 08:16:07;;;;;;;6.70;2.50;;;14.20;99.90;;;;;;5077289;28;20059;-91
2023/09/14 08:18:32;;;;;;;3.15;1.70;;;14.20;99.90;;;;;;5076976;28;20036;-93
2023/09/14 08:20:58;;;;;;;3.83;2.20;;;14.20;99.90;;;;;;5078456;28;20029;-94
2023/09/14 08:23:24;;;;;;;3.38;2.20;;;14.20;99.90;;;;;;5080283;28;20048;-93
2023/09/14 08:25:50;;;;;;;3.50;2.50;;;14.20;99.90;;;;;;5082983;28;20017;-94
2023/09/14 08:28:17;;;;;;;5.30;3.10;;;14.20;99.90;;;;;;5078110;28;20074;-93
2023/09/14 08:30:43;;;;;;;5.00;2.88;;;14.20;99.90;;;;;;5079767;28;20034;-96
2023/09/14 08:33:10;;;;;;;3.00;2.20;;;14.20;99.90;;;;;;5064239;28;20047;-94
2023/09/14 08:35:37;;;;;;;5.30;2.95;;;14.20;99.90;;;;;;5069859;28;20045;-93
2023/09/14 08:38:07;;;;;;;4.68;2.90;;;14.20;99.90;;;;;;5067628;28;20025;-94
2023/09/14 08:40:34;;;;;;;5.30;3.05;;;14.30;99.90;;;;;;5071858;28;20049;-93
2023/09/14 08:43:01;;;;;;;4.93;2.55;;;14.30;99.90;;;;;;5093162;28;20052;-91
2023/09/14 08:45:28;;;;;;;5.68;2.67;;;14.40;99.90;;;;;;5073763;28;20024;-93
2023/09/14 08:47:55;;;;;;;4.53;2.92;;;14.50;99.90;;;;;;5073629;28;20024;-92
2023/09/14 08:50:26;;;;;;;5.75;2.50;;;14.60;99.90;;;;;;5073201;28;20103;-93
2023/09/14 08:52:52;;;;;;;6.47;3.15;;;14.60;99.90;;;;;;5079966;28;20021;-92
2023/09/14 08:55:19;;;;;;;6.35;2.97;;;14.70;99.90;;;;;;5080108;28;20021;-92
2023/09/14 08:57:46;;;;;;;3.15;2.45;;;14.80;99.90;;;;;;5074230;28;20025;-94
2023/09/14 09:00:17;;;;;;;4.93;2.67;;;14.80;99.90;;;;;;5084412;28;20044;-92
2023/09/14 09:02:50;;;;;;;4.57;2.20;;;14.90;99.90;;;;;;5077451;28;20036;-93
2023/09/14 09:05:16;;;;;;;5.93;2.70;;;14.90;99.90;;;;;;5095255;28;20871;-91
2023/09/14 09:07:44;;;;;;;3.90;2.20;;;15.00;99.90;;;;;;5076513;28;20112;-94
2023/09/14 09:10:32;;;;;;;4.70;2.15;;;15.00;99.90;;;;;;5086567;28;20435;-92
2023/09/14 09:13:00;;;;;;;3.58;1.70;;;14.90;99.90;;;;;;5086577;28;20576;-93
2023/09/14 09:15:27;;;;;;;3.92;1.98;;;15.00;99.90;;;;;;5066299;28;20030;-92
2023/09/14 09:18:04;;;;;;;1.92;1.55;;;15.10;99.90;;;;;;5077706;28;20028;-93
2023/09/14 09:20:30;;;;;;;3.13;1.88;;;15.10;99.90;;;;;;5085690;28;20020;-92
2023/09/14 09:22:59;;;;;;;1.48;1.30;;;15.10;99.90;;;;;;5096767;28;20025;-94
2023/09/14 09:25:25;;;;;;;3.90;1.92;;;15.20;99.90;;;;;;5075334;28;20083;-94
2023/09/14 09:28:02;;;;;;;3.70;1.35;;;15.20;99.90;;;;;;5073703;28;20025;-95
2023/09/14 09:30:32;;;;;;;4.05;1.40;;;15.20;99.90;;;;;;5083366;28;20024;-95
2023/09/14 09:32:58;;;;;;;2.13;1.53;;;15.30;99.90;;;;;;5083305;28;20035;-94
2023/09/14 09:35:26;;;;;;;4.88;2.40;;;15.30;99.90;;;;;;5089271;28;20019;-93
2023/09/14 09:37:53;;;;;;;5.45;1.50;;;15.40;99.90;;;;;;5098405;28;20029;-92
2023/09/14 09:40:24;;;;;;;1.88;1.30;;;15.50;99.90;;;;;;5081252;28;20047;-93
2023/09/14 09:42:52;;;;;;;2.83;1.20;;;15.50;99.90;;;;;;5084709;28;20068;-91
2023/09/14 09:45:25;;;;;;;3.40;1.30;;;15.60;99.90;;;;;;5094630;28;20036;-94
2023/09/14 09:47:53;;;;;;;3.38;1.70;;;15.70;99.90;;;;;;5078144;28;20020;-94
2023/09/14 09:50:21;;;;;;;2.50;1.50;;;15.90;99.90;;;;;;5080593;28;20021;-94
2023/09/14 09:52:48;;;;;;;2.63;1.30;;;16.00;99.90;;;;;;5107772;28;20097;-94
2023/09/14 09:55:24;;;;;;;1.70;1.02;;;16.10;99.90;;;;;;5093592;28;20027;-94
2023/09/14 09:57:59;;;;;;;2.25;1.48;;;16.20;99.90;;;;;;5090926;28;20623;-91
2023/09/14 10:00:29;;;;;;;2.70;1.42;;;16.20;99.90;;;;;;5094310;28;20028;-94
2023/09/14 10:02:55;;;;;;;3.25;1.42;;;16.20;99.90;;;;;;5088497;28;20032;-94
2023/09/14 10:05:38;;;;;;;4.22;1.88;;;16.20;99.90;;;;;;5107184;28;20088;-95
2023/09/14 10:08:09;;;;;;;2.38;1.63;;;16.30;99.90;;;;;;5085659;28;20012;-96
2023/09/14 10:10:35;;;;;;;3.10;1.27;;;16.40;99.90;;;;;;5094422;28;20031;-95
2023/09/14 10:13:04;;;;;;;4.00;1.48;;;16.40;99.90;;;;;;5089602;28;20020;-96
2023/09/14 10:15:32;;;;;;;2.03;1.40;;;16.50;99.90;;;;;;5088194;28;20055;-96
2023/09/14 10:18:03;;;;;;;2.33;1.13;;;16.60;99.90;;;;;;5088151;28;20032;-95
2023/09/14 10:20:29;;;;;;;3.38;1.67;;;16.60;99.90;;;;;;5093824;28;20055;-96
2023/09/14 10:23:01;;;;;;;2.00;1.50;;;16.70;99.90;;;;;;5097298;28;20036;-96
2023/09/14 10:25:28;;;;;;;1.80;1.15;;;16.80;99.90;;;;;;5116060;28;20035;-94
2023/09/14 10:27:53;;;;;;;3.28;1.40;;;16.90;99.90;;;;;;5099316;28;20035;-94
2023/09/14 10:30:20;;;;;;;1.85;1.20;;;16.90;99.90;;;;;;5097732;28;20178;-96
2023/09/14 10:32:48;;;;;;;4.03;1.30;;;16.90;99.90;;;;;;5098126;28;20024;-94
2023/09/14 10:35:17;;;;;;;2.95;1.23;;;16.90;99.90;;;;;;5116352;28;20028;-96
2023/09/14 10:37:45;;;;;;;6.38;1.00;;;16.90;99.90;;;;;;5098142;28;20028;-95
2023/09/14 10:40:17;;;;;;;5.95;1.20;;;16.90;99.90;;;;;;5097863;28;20016;-95
2023/09/14 10:42:43;;;;;;;3.13;1.13;;;16.90;99.90;;;;;;5099083;28;20052;-95
2023/09/14 10:45:13;;;;;;;1.80;1.20;;;16.90;99.90;;;;;;5099466;28;20028;-94
2023/09/14 10:47:49;;;;;;;4.22;1.20;;;17.00;99.90;;;;;;5097867;28;20035;-95
2023/09/14 10:50:19;;;;;;;2.45;0.93;;;17.00;99.90;;;;;;5117243;27;20024;-95
2023/09/14 10:52:54;;;;;;;1.55;0.75;;;16.90;99.90;;;;;;5097290;28;20016;-93
2023/09/14 10:55:25;;;;;;;4.18;0.70;;;16.80;99.90;;;;;;5116356;27;20054;-94
2023/09/14 10:57:51;;;;;;;3.35;0.80;;;16.70;99.90;;;;;;5082097;28;20154;-92
2023/09/14 11:00:34;;;;;;;2.80;1.10;;;16.70;99.90;;;;;;5094638;28;20013;-88
2023/09/14 11:03:00;;;;;;;2.72;1.08;;;16.50;99.90;;;;;;5081801;28;20044;-90
2023/09/14 11:05:40;;;;;;;1.75;0.98;;;16.50;99.90;;;;;;5119279;27;20016;-92
2023/09/14 11:08:06;;;;;;;0.85;0.57;;;16.50;99.90;;;;;;5099548;27;20023;-90
2023/09/14 11:10:38;;;;;;;1.70;0.80;;;16.50;99.90;;;;;;5099667;28;20036;-92
2023/09/14 11:13:19;;;;;;;0.85;0.60;;;16.50;99.90;;;;;;5118452;28;20035;-95
2023/09/14 11:16:17;;;;;;;3.63;0.80;;;16.50;99.90;;;;;;5101850;28;20095;-95
2023/09/14 11:18:43;;;;;;;3.35;0.80;;;16.50;99.90;;;;;;5102218;28;20008;-94
2023/09/14 11:21:43;;;;;;;3.80;0.77;;;16.40;99.90;;;;;;5102267;28;20047;-96
2023/09/14 11:24:12;;;;;;;2.53;1.17;;;16.50;99.90;;;;;;5076169;28;20036;-91
2023/09/14 11:26:46;;;;;;;2.67;0.88;;;16.50;99.90;;;;;;5118945;28;20014;-91
2023/09/14 11:29:12;;;;;;;1.33;0.43;;;16.60;99.90;;;;;;5115720;28;20039;-93
2023/09/14 11:31:43;;;;;;;0.90;0.60;;;16.70;99.90;;;;;;5100460;28;20042;-93
2023/09/14 11:34:18;;;;;;;1.73;1.00;;;16.80;99.90;;;;;;5101144;28;20022;-93
2023/09/14 11:36:44;;;;;;;1.73;0.80;;;16.90;99.90;;;;;;5100292;28;20016;-94
2023/09/14 11:39:14;;;;;;;1.73;0.98;;;17.10;99.90;;;;;;5118802;27;20050;-94
2023/09/14 11:41:49;;;;;;;2.25;1.13;;;17.30;99.90;;;;;;5096226;28;20048;-96
2023/09/14 11:44:17;;;;;;;2.08;0.95;;;17.50;99.90;;;;;;5091204;28;20033;-95
2023/09/14 11:46:49;;;;;;;1.83;0.90;;;17.70;99.90;;;;;;5072144;28;20080;-92
2023/09/14 11:49:22;;;;;;;2.78;0.90;;;17.90;99.90;;;;;;5087965;28;20040;-91
2023/09/14 11:51:51;;;;;;;2.63;1.05;;;17.90;99.90;;;;;;5090450;28;20025;-96
2023/09/14 11:54:32;;;;;;;3.60;1.00;;;17.80;99.90;;;;;;5090602;28;20020;-95
2023/09/14 11:57:05;;;;;;;4.00;1.02;;;17.80;99.90;;;;;;5095532;28;20028;-96
2023/09/14 11:59:32;;;;;;;7.68;1.58;;;17.70;99.90;;;;;;5094261;28;20022;-96
2023/09/14 12:02:00;;;;;;;5.30;1.20;;;17.70;99.90;;;;;;5078904;28;20063;-90
2023/09/14 12:04:27;;;;;;;4.28;1.15;;;17.60;99.90;;;;;;5095644;28;20017;-96
2023/09/14 12:06:54;;;;;;;3.80;1.30;;;17.60;99.90;;;;;;5090738;28;20040;-96
2023/09/14 12:09:38;;;;;;;3.58;1.40;;;17.60;99.90;;;;;;5084313;28;20032;-96
2023/09/14 12:12:04;;;;;;;1.40;1.00;;;17.60;99.90;;;;;;5077296;28;20067;-95
2023/09/14 12:14:41;;;;;;;2.15;0.90;;;17.70;99.90;;;;;;5073266;28;20024;-95
2023/09/14 12:17:24;;;;;;;3.63;1.10;;;17.70;99.90;;;;;;5080479;28;20074;-95
2023/09/14 12:19:59;;;;;;;5.65;1.35;;;17.70;99.90;;;;;;5076593;28;20103;-96
2023/09/14 12:22:27;;;;;;;4.97;1.15;;;17.70;99.90;;;;;;5079330;28;20177;-94
2023/09/14 12:24:53;;;;;;;2.75;0.80;;;17.60;99.90;;;;;;5076855;28;20012;-95
2023/09/14 12:27:20;;;;;;;3.83;1.42;;;17.60;99.90;;;;;;5081462;28;20043;-96
2023/09/14 12:29:47;;;;;;;7.95;1.73;;;17.50;99.90;;;;;;5085897;28;20028;-95
2023/09/14 12:32:14;;;;;;;5.47;1.25;;;17.50;99.90;;;;;;5077098;28;20128;-95
2023/09/14 12:34:40;;;;;;;4.82;1.20;;;17.50;99.90;;;;;;5081454;28;20005;-96
2023/09/14 12:37:06;;;;;;;5.03;1.45;;;17.40;99.90;;;;;;5096695;28;20071;-90
2023/09/14 12:39:33;;;;;;;2.90;1.20;;;17.40;99.90;;;;;;5096009;28;20104;-96
2023/09/14 12:42:03;;;;;;;10.38;1.85;;;17.30;99.90;;;;;;5093026;28;20048;-95
2023/09/14 12:44:30;;;;;;;5.43;1.50;;;17.20;99.90;;;;;;5093602;28;20048;-96
2023/09/14 12:46:56;;;;;;;5.50;1.45;;;17.20;99.90;;;;;;5093580;28;20032;-96
2023/09/14 12:49:23;;;;;;;4.43;1.10;;;17.20;99.90;;;;;;5091860;28;20032;-95